createdAt,value
2018-09-19T00:00:47.490Z,94.83
2018-09-19T00:01:47.513Z,94.54
2018-09-19T00:02:47.535Z,94.49
2018-09-19T00:03:47.558Z,94.45
2018-09-19T00:04:47.581Z,94.54
2018-09-19T00:05:47.615Z,94.40
2018-09-19T00:06:47.630Z,94.40
2018-09-19T00:07:47.652Z,94.35
2018-09-19T00:08:47.676Z,94.73
2018-09-19T00:09:47.696Z,94.54
2018-09-19T00:10:47.721Z,94.93
2018-09-19T00:11:47.753Z,95.03
2018-09-19T00:12:47.764Z,95.50
2018-09-19T00:13:47.791Z,95.03
2018-09-19T00:14:47.812Z,95.03
2018-09-19T00:15:47.842Z,95.03
2018-09-19T00:16:47.856Z,95.31
2018-09-19T00:17:47.887Z,95.40
2018-09-19T00:18:47.900Z,95.40
2018-09-19T00:19:47.924Z,95.40
2018-09-19T00:20:47.949Z,95.31
2018-09-19T00:21:48.018Z,95.03
2018-09-19T00:22:48.031Z,95.79
2018-09-19T00:23:48.018Z,95.70
2018-09-19T00:24:48.038Z,95.79
2018-09-19T00:25:48.065Z,95.70
2018-09-19T00:26:48.088Z,95.60
2018-09-19T00:27:48.107Z,96.08
2018-09-19T00:28:48.129Z,96.17
2018-09-19T00:29:48.153Z,96.08
2018-09-19T00:30:48.175Z,96.08
2018-09-19T00:31:48.199Z,96.17
2018-09-19T00:32:48.221Z,95.89
2018-09-19T00:33:48.247Z,95.98
2018-09-19T00:34:48.266Z,95.79
2018-09-19T00:35:48.287Z,96.08
2018-09-19T00:36:48.317Z,95.89
2018-09-19T00:37:48.335Z,96.08
2018-09-19T00:38:48.364Z,95.98
2018-09-19T00:39:48.383Z,95.89
2018-09-19T00:40:48.408Z,96.27
2018-09-19T00:41:48.428Z,95.60
2018-09-19T00:42:48.451Z,95.70
2018-09-19T00:43:48.476Z,95.98
2018-09-19T00:44:48.497Z,95.70
2018-09-19T00:45:48.522Z,96.17
2018-09-19T00:46:48.564Z,96.17
2018-09-19T00:47:48.566Z,95.98
2018-09-19T00:48:48.585Z,96.17
2018-09-19T00:49:48.610Z,95.98
2018-09-19T00:50:48.634Z,96.17
2018-09-19T00:51:48.653Z,96.17
2018-09-19T00:52:48.679Z,96.08
2018-09-19T00:53:48.700Z,95.98
2018-09-19T00:54:48.724Z,96.08
2018-09-19T00:55:48.745Z,96.27
2018-09-19T00:56:48.770Z,96.47
2018-09-19T00:57:48.797Z,96.27
2018-09-19T00:58:48.812Z,96.56
2018-09-19T00:59:48.844Z,96.17
2018-09-19T01:00:48.860Z,96.08
2018-09-19T01:01:48.892Z,96.37
2018-09-19T01:02:48.907Z,97.14
2018-09-19T01:03:48.957Z,96.66
2018-09-19T01:04:48.951Z,96.75
2018-09-19T01:05:48.978Z,96.75
2018-09-19T01:06:48.996Z,96.47
2018-09-19T01:07:49.021Z,96.85
2018-09-19T01:08:49.041Z,96.75
2018-09-19T01:09:49.066Z,96.75
2018-09-19T01:10:49.089Z,96.94
2018-09-19T01:11:49.109Z,96.56
2018-09-19T01:12:49.137Z,97.71
2018-09-19T01:13:49.158Z,97.33
2018-09-19T01:14:49.182Z,97.33
2018-09-19T01:15:49.203Z,97.42
2018-09-19T01:16:49.222Z,97.24
2018-09-19T01:17:49.246Z,96.66
2018-09-19T01:18:49.271Z,96.85
2018-09-19T01:19:49.292Z,97.33
2018-09-19T01:20:49.337Z,97.42
2018-09-19T01:21:49.349Z,97.24
2018-09-19T01:22:49.363Z,97.33
2018-09-19T01:23:49.385Z,97.33
2018-09-19T01:24:49.435Z,97.33
2018-09-19T01:25:49.431Z,97.33
2018-09-19T01:26:49.457Z,97.33
2018-09-19T01:27:49.475Z,97.91
2018-09-19T01:28:49.501Z,97.14
2018-09-19T01:29:49.523Z,98.10
2018-09-19T01:30:49.545Z,98.19
2018-09-19T01:31:49.597Z,98.29
2018-09-19T01:32:49.591Z,98.39
2018-09-19T01:33:49.613Z,98.77
2018-09-19T01:34:49.635Z,98.82
2018-09-19T01:35:49.656Z,98.91
2018-09-19T01:36:49.681Z,98.82
2018-09-19T01:37:49.703Z,99.01
2018-09-19T01:38:49.763Z,99.20
2018-09-19T01:39:49.746Z,99.20
2018-09-19T01:40:49.774Z,99.58
2018-09-19T01:41:49.792Z,99.20
2018-09-19T01:42:49.817Z,99.30
2018-09-19T01:43:49.842Z,99.49
2018-09-19T01:44:49.863Z,99.58
2018-09-19T01:45:49.883Z,99.97
2018-09-19T01:46:49.907Z,99.78
2018-09-19T01:47:49.927Z,99.20
2018-09-19T01:48:49.952Z,99.20
2018-09-19T01:49:49.976Z,99.49
2018-09-19T01:50:49.995Z,99.68
2018-09-19T01:51:50.018Z,99.30
2018-09-19T01:52:50.048Z,99.49
2018-09-19T01:53:50.067Z,99.10
2018-09-19T01:54:50.088Z,99.58
2018-09-19T01:55:50.109Z,99.40
2018-09-19T01:56:50.135Z,99.78
2018-09-19T01:57:50.159Z,99.20
2018-09-19T01:58:50.181Z,99.10
2018-09-19T01:59:50.200Z,99.58
2018-09-19T02:00:50.225Z,99.40
2018-09-19T02:01:50.248Z,99.20
2018-09-19T02:02:50.267Z,99.58
2018-09-19T02:03:50.299Z,99.10
2018-09-19T02:04:50.316Z,99.97
2018-09-19T02:05:50.338Z,99.97
2018-09-19T02:06:50.362Z,99.58
2018-09-19T02:07:50.383Z,99.68
2018-09-19T02:08:50.403Z,99.87
2018-09-19T02:09:50.427Z,99.99
2018-09-19T02:10:50.460Z,99.99
2018-09-19T02:11:51.269Z,99.99
2018-09-19T02:12:50.497Z,99.99
2018-09-19T02:13:50.518Z,99.99
2018-09-19T02:14:50.543Z,99.99
2018-09-19T02:15:50.560Z,99.99
2018-09-19T02:16:50.666Z,99.99
2018-09-19T02:17:50.611Z,99.99
2018-09-19T02:18:50.630Z,99.99
2018-09-19T02:19:50.653Z,99.99
2018-09-19T02:20:50.687Z,99.99
2018-09-19T02:21:50.699Z,99.99
2018-09-19T02:22:50.719Z,99.99
2018-09-19T02:23:50.744Z,99.99
2018-09-19T02:24:50.764Z,99.99
2018-09-19T02:25:50.792Z,99.99
2018-09-19T02:26:50.809Z,99.99
2018-09-19T02:27:50.832Z,99.99
2018-09-19T02:28:50.855Z,99.99
2018-09-19T02:29:50.877Z,99.99
2018-09-19T02:30:50.899Z,99.99
2018-09-19T02:31:50.921Z,99.99
2018-09-19T02:32:50.944Z,99.99
2018-09-19T02:33:50.970Z,99.99
2018-09-19T02:34:51.015Z,99.99
2018-09-19T02:35:51.010Z,99.99
2018-09-19T02:36:51.065Z,99.99
2018-09-19T02:37:51.061Z,99.99
2018-09-19T02:38:51.083Z,99.99
2018-09-19T02:39:51.102Z,99.99
2018-09-19T02:40:51.124Z,99.99
2018-09-19T02:41:51.148Z,99.99
2018-09-19T02:42:51.171Z,99.99
2018-09-19T02:43:51.199Z,99.99
2018-09-19T02:44:51.212Z,99.99
2018-09-19T02:45:51.287Z,99.99
2018-09-19T02:46:51.256Z,99.99
2018-09-19T02:47:51.282Z,99.99
2018-09-19T02:48:51.304Z,99.99
2018-09-19T02:49:51.324Z,99.99
2018-09-19T02:50:51.347Z,99.99
2018-09-19T02:51:51.395Z,99.99
2018-09-19T02:52:51.394Z,99.99
2018-09-19T02:53:51.415Z,99.99
2018-09-19T02:54:51.436Z,99.99
2018-09-19T02:55:51.462Z,99.99
2018-09-19T02:56:51.480Z,99.99
2018-09-19T02:57:51.505Z,99.99
2018-09-19T02:58:51.526Z,99.99
2018-09-19T02:59:51.549Z,99.99
2018-09-19T03:00:51.573Z,99.99
2018-09-19T03:01:51.592Z,99.99
2018-09-19T03:02:51.615Z,99.99
2018-09-19T03:03:51.638Z,99.99
2018-09-19T03:04:51.667Z,99.99
2018-09-19T03:05:51.684Z,99.99
2018-09-19T03:06:51.707Z,99.99
2018-09-19T03:07:51.728Z,99.99
2018-09-19T03:08:51.749Z,99.99
2018-09-19T03:09:51.773Z,99.99
2018-09-19T03:10:51.796Z,99.99
2018-09-19T03:11:51.815Z,99.99
2018-09-19T03:12:51.838Z,99.99
2018-09-19T03:13:51.859Z,99.99
2018-09-19T03:14:51.889Z,99.99
2018-09-19T03:15:51.904Z,99.99
2018-09-19T03:17:51.954Z,99.99
2018-09-19T03:18:51.980Z,99.99
2018-09-19T03:19:52.004Z,99.99
2018-09-19T03:20:52.043Z,99.99
2018-09-19T03:21:52.047Z,99.99
2018-09-19T03:22:52.062Z,99.99
2018-09-19T03:23:52.082Z,99.99
2018-09-19T03:24:52.105Z,99.99
2018-09-19T03:25:52.129Z,99.99
2018-09-19T03:26:52.155Z,99.99
2018-09-19T03:27:52.192Z,99.99
2018-09-19T03:28:52.194Z,99.99
2018-09-19T03:29:52.219Z,99.99
2018-09-19T03:30:52.235Z,99.99
2018-09-19T03:31:52.258Z,99.99
2018-09-19T03:32:52.279Z,99.99
2018-09-19T03:33:52.305Z,99.99
2018-09-19T03:34:52.322Z,99.99
2018-09-19T03:35:52.344Z,99.99
2018-09-19T03:36:52.371Z,99.99
2018-09-19T03:37:52.390Z,99.99
2018-09-19T03:38:52.414Z,99.99
2018-09-19T03:39:52.435Z,99.99
2018-09-19T03:40:52.457Z,99.99
2018-09-19T03:41:52.477Z,99.99
2018-09-19T03:42:52.500Z,99.99
2018-09-19T03:43:52.521Z,99.99
2018-09-19T03:44:52.553Z,99.99
2018-09-19T03:45:52.567Z,99.99
2018-09-19T03:46:52.923Z,99.99
2018-09-19T03:47:52.611Z,99.99
2018-09-19T03:48:52.656Z,99.99
2018-09-19T03:49:52.654Z,99.99
2018-09-19T03:50:52.677Z,99.99
2018-09-19T03:51:52.696Z,99.99
2018-09-19T03:52:52.721Z,99.99
2018-09-19T03:53:52.750Z,99.99
2018-09-19T03:54:52.763Z,99.99
2018-09-19T03:55:52.787Z,99.99
2018-09-19T03:56:52.809Z,99.99
2018-09-19T03:57:52.830Z,99.99
2018-09-19T03:58:52.851Z,99.99
2018-09-19T03:59:52.870Z,99.99
2018-09-19T04:00:52.895Z,99.99
2018-09-19T04:01:52.916Z,99.99
2018-09-19T04:02:52.935Z,99.99
2018-09-19T04:03:52.960Z,99.99
2018-09-19T04:04:52.982Z,99.99
2018-09-19T04:05:53.004Z,99.99
2018-09-19T04:06:53.024Z,99.99
2018-09-19T04:07:53.065Z,99.99
2018-09-19T04:08:53.068Z,99.99
2018-09-19T04:09:53.092Z,99.99
2018-09-19T04:10:53.110Z,99.99
2018-09-19T04:11:53.133Z,99.99
2018-09-19T04:12:53.152Z,99.99
2018-09-19T04:13:53.174Z,99.99
2018-09-19T04:14:53.197Z,99.99
2018-09-19T04:15:53.219Z,99.99
2018-09-19T04:16:53.246Z,99.99
2018-09-19T04:17:53.287Z,99.99
2018-09-19T04:18:53.285Z,99.99
2018-09-19T04:19:53.304Z,99.99
2018-09-19T04:20:53.331Z,99.99
2018-09-19T04:21:53.354Z,99.99
2018-09-19T04:22:53.370Z,99.99
2018-09-19T04:23:53.392Z,99.99
2018-09-19T04:24:53.415Z,99.99
2018-09-19T04:25:53.438Z,99.99
2018-09-19T04:26:53.456Z,99.99
2018-09-19T04:27:53.481Z,99.99
2018-09-19T04:28:53.504Z,99.99
2018-09-19T04:29:53.523Z,99.99
2018-09-19T04:30:53.553Z,99.99
2018-09-19T04:31:53.570Z,99.99
2018-09-19T04:32:53.592Z,99.99
2018-09-19T04:33:53.611Z,99.99
2018-09-19T04:34:53.631Z,99.99
2018-09-19T04:35:53.653Z,99.99
2018-09-19T04:36:53.682Z,99.99
2018-09-19T04:37:53.698Z,99.99
2018-09-19T04:38:53.719Z,99.99
2018-09-19T04:39:53.742Z,99.99
2018-09-19T04:40:53.763Z,99.99
2018-09-19T04:41:53.790Z,99.99
2018-09-19T04:42:53.807Z,99.99
2018-09-19T04:43:53.826Z,99.99
2018-09-19T04:44:53.851Z,99.99
2018-09-19T04:45:53.873Z,99.99
2018-09-19T04:46:53.895Z,99.99
2018-09-19T04:47:53.913Z,99.99
2018-09-19T04:48:53.938Z,99.99
2018-09-19T04:49:53.961Z,99.99
2018-09-19T04:50:53.978Z,99.99
2018-09-19T04:51:54.003Z,99.99
2018-09-19T04:52:54.026Z,99.99
2018-09-19T04:53:54.054Z,99.99
2018-09-19T04:54:54.067Z,99.99
2018-09-19T04:55:54.096Z,99.99
2018-09-19T04:56:54.445Z,99.99
2018-09-19T04:57:54.131Z,99.99
2018-09-19T04:58:54.159Z,99.99
2018-09-19T04:59:54.375Z,99.99
2018-09-19T05:00:54.197Z,99.99
2018-09-19T05:01:54.219Z,99.99
2018-09-19T05:02:54.239Z,99.99
2018-09-19T05:03:54.259Z,99.99
2018-09-19T05:04:54.282Z,99.99
2018-09-19T05:05:54.405Z,99.99
2018-09-19T05:06:54.330Z,99.99
2018-09-19T05:07:54.348Z,99.99
2018-09-19T05:08:54.367Z,99.99
2018-09-19T05:09:54.392Z,99.99
2018-09-19T05:10:54.417Z,99.99
2018-09-19T05:11:54.434Z,99.99
2018-09-19T05:12:54.455Z,99.99
2018-09-19T05:13:54.475Z,99.99
2018-09-19T05:14:54.498Z,99.99
2018-09-19T05:15:54.523Z,99.99
2018-09-19T05:16:54.540Z,99.99
2018-09-19T05:17:54.565Z,99.99
2018-09-19T05:18:54.586Z,99.99
2018-09-19T05:19:54.609Z,99.99
2018-09-19T05:20:54.624Z,99.99
2018-09-19T05:21:54.650Z,99.99
2018-09-19T05:22:54.667Z,99.99
2018-09-19T05:23:54.692Z,99.99
2018-09-19T05:24:54.716Z,99.99
2018-09-19T05:25:54.735Z,99.99
2018-09-19T05:26:54.757Z,99.99
2018-09-19T05:27:54.775Z,99.99
2018-09-19T05:28:54.799Z,99.99
2018-09-19T05:29:54.826Z,99.99
2018-09-19T05:30:54.844Z,99.99
2018-09-19T05:31:54.864Z,99.99
2018-09-19T05:32:54.885Z,99.99
2018-09-19T05:33:54.906Z,99.99
2018-09-19T05:34:55.129Z,99.99
2018-09-19T05:35:54.981Z,99.99
2018-09-19T05:36:54.970Z,99.99
2018-09-19T05:37:54.996Z,99.99
2018-09-19T05:38:55.014Z,99.99
2018-09-19T05:39:55.035Z,99.99
2018-09-19T05:40:55.054Z,99.99
2018-09-19T05:41:55.080Z,99.99
2018-09-19T05:42:55.097Z,99.99
2018-09-19T05:43:55.122Z,99.99
2018-09-19T05:44:55.143Z,99.99
2018-09-19T05:45:55.166Z,99.99
2018-09-19T05:46:55.183Z,99.99
2018-09-19T05:47:55.206Z,99.99
2018-09-19T05:48:55.226Z,99.99
2018-09-19T05:49:55.248Z,99.99
2018-09-19T05:50:55.271Z,99.99
2018-09-19T05:51:55.293Z,99.99
2018-09-19T05:52:55.314Z,99.99
2018-09-19T05:53:55.337Z,99.99
2018-09-19T05:54:55.360Z,99.99
2018-09-19T05:55:55.378Z,99.99
2018-09-19T05:56:55.400Z,99.99
2018-09-19T05:57:55.422Z,99.99
2018-09-19T05:58:55.445Z,99.99
2018-09-19T05:59:55.477Z,99.99
2018-09-19T06:00:55.488Z,99.99
2018-09-19T06:01:55.509Z,99.99
2018-09-19T06:02:55.526Z,99.99
2018-09-19T06:03:55.548Z,99.99
2018-09-19T06:04:55.615Z,99.99
2018-09-19T06:05:55.593Z,99.99
2018-09-19T06:06:55.613Z,99.99
2018-09-19T06:07:55.636Z,99.99
2018-09-19T06:08:55.659Z,99.99
2018-09-19T06:09:55.677Z,99.99
2018-09-19T06:10:55.703Z,99.99
2018-09-19T06:11:55.771Z,99.99
2018-09-19T06:12:55.777Z,99.99
2018-09-19T06:13:55.763Z,99.99
2018-09-19T06:14:55.786Z,99.99
2018-09-19T06:15:55.810Z,99.99
2018-09-19T06:16:55.827Z,99.99
2018-09-19T06:17:55.849Z,99.99
2018-09-19T06:18:55.870Z,99.99
2018-09-19T06:19:55.892Z,99.99
2018-09-19T06:20:55.917Z,99.99
2018-09-19T06:21:55.939Z,99.99
2018-09-19T06:22:56.077Z,99.99
2018-09-19T06:23:55.978Z,99.99
2018-09-19T06:24:56.001Z,99.99
2018-09-19T06:25:56.024Z,99.99
2018-09-19T06:26:56.086Z,99.99
2018-09-19T06:27:56.066Z,99.99
2018-09-19T06:28:56.089Z,99.99
2018-09-19T06:29:56.110Z,99.99
2018-09-19T06:30:56.135Z,99.99
2018-09-19T06:31:56.152Z,99.99
2018-09-19T06:32:56.204Z,99.99
2018-09-19T06:33:56.197Z,99.99
2018-09-19T06:34:56.216Z,99.99
2018-09-19T06:35:56.242Z,99.99
2018-09-19T06:36:56.330Z,99.99
2018-09-19T06:37:56.286Z,99.99
2018-09-19T06:38:56.309Z,99.99
2018-09-19T06:39:56.392Z,99.99
2018-09-19T06:40:56.556Z,99.99
2018-09-19T06:41:56.371Z,99.99
2018-09-19T06:42:56.392Z,99.99
2018-09-19T06:43:56.415Z,99.99
2018-09-19T06:44:56.439Z,99.99
2018-09-19T06:45:56.462Z,99.99
2018-09-19T06:46:56.524Z,99.99
2018-09-19T06:47:56.500Z,99.99
2018-09-19T06:48:56.529Z,99.99
2018-09-19T06:49:56.545Z,99.99
2018-09-19T06:50:56.569Z,99.99
2018-09-19T06:51:56.628Z,99.99
2018-09-19T06:52:56.611Z,99.99
2018-09-19T06:53:56.639Z,99.99
2018-09-19T06:54:56.654Z,99.99
2018-09-19T06:55:56.730Z,99.99
2018-09-19T06:56:56.700Z,99.99
2018-09-19T06:57:56.753Z,99.99
2018-09-19T06:58:56.742Z,99.99
2018-09-19T06:59:56.801Z,99.99
2018-09-19T07:00:56.789Z,99.99
2018-09-19T07:01:56.811Z,99.99
2018-09-19T07:02:56.834Z,99.99
2018-09-19T07:03:56.855Z,99.99
2018-09-19T07:04:56.876Z,99.99
2018-09-19T07:05:56.965Z,99.99
2018-09-19T07:06:56.921Z,99.99
2018-09-19T07:07:56.954Z,99.99
2018-09-19T07:08:56.966Z,99.99
2018-09-19T07:09:56.994Z,99.99
2018-09-19T07:10:57.017Z,99.99
2018-09-19T07:11:57.036Z,99.99
2018-09-19T07:12:57.054Z,99.99
2018-09-19T07:13:57.077Z,99.99
2018-09-19T07:14:57.101Z,99.99
2018-09-19T07:15:57.124Z,99.99
2018-09-19T07:16:57.143Z,99.99
2018-09-19T07:17:57.170Z,99.99
2018-09-19T07:18:57.216Z,99.99
2018-09-19T07:19:57.211Z,99.99
2018-09-19T07:20:57.235Z,99.99
2018-09-19T07:21:57.257Z,99.99
2018-09-19T07:22:57.286Z,99.99
2018-09-19T07:23:57.403Z,99.99
2018-09-19T07:24:57.336Z,99.99
2018-09-19T07:25:57.351Z,99.78
2018-09-19T07:26:57.681Z,99.30
2018-09-19T07:27:57.396Z,99.11
2018-09-19T07:28:57.414Z,99.30
2018-09-19T07:29:57.440Z,98.82
2018-09-19T07:30:57.490Z,98.53
2018-09-19T07:31:57.488Z,98.14
2018-09-19T07:32:57.507Z,97.33
2018-09-19T07:33:57.536Z,97.62
2018-09-19T07:34:57.552Z,97.62
2018-09-19T07:35:57.577Z,97.71
2018-09-19T07:36:57.600Z,97.24
2018-09-19T07:37:57.625Z,97.04
2018-09-19T07:38:57.646Z,96.37
2018-09-19T07:39:57.668Z,96.17
2018-09-19T07:40:57.690Z,96.70
2018-09-19T07:41:57.716Z,95.98
2018-09-19T07:42:57.737Z,95.94
2018-09-19T07:43:57.760Z,94.78
2018-09-19T07:44:57.785Z,95.26
2018-09-19T07:45:57.807Z,95.26
2018-09-19T07:46:57.831Z,93.82
2018-09-19T07:47:58.186Z,94.20
2018-09-19T07:48:57.875Z,93.77
2018-09-19T07:49:57.895Z,93.67
2018-09-19T07:50:57.920Z,93.38
2018-09-19T07:51:57.945Z,93.48
2018-09-19T07:52:57.966Z,93.00
2018-09-19T07:53:57.991Z,92.71
2018-09-19T07:54:58.014Z,93.00
2018-09-19T07:55:58.036Z,92.80
2018-09-19T07:56:58.066Z,92.37
2018-09-19T07:57:58.235Z,92.47
2018-09-19T07:58:58.107Z,92.94
2018-09-19T07:59:58.128Z,92.47
2018-09-19T08:00:58.198Z,91.89
2018-09-19T08:01:58.186Z,91.99
2018-09-19T08:02:58.199Z,91.41
2018-09-19T08:03:58.222Z,90.92
2018-09-19T08:04:58.246Z,90.83
2018-09-19T08:05:58.269Z,90.25
2018-09-19T08:06:58.295Z,88.95
2018-09-19T08:07:58.318Z,88.65
2018-09-19T08:08:58.364Z,88.56
2018-09-19T08:09:58.416Z,88.08
2018-09-19T08:10:58.399Z,87.60
2018-09-19T08:11:58.412Z,87.70
2018-09-19T08:12:58.435Z,87.70
2018-09-19T08:13:58.460Z,87.70
2018-09-19T08:14:58.488Z,87.40
2018-09-19T08:15:58.506Z,87.21
2018-09-19T08:16:58.623Z,87.12
2018-09-19T08:17:58.555Z,86.77
2018-09-19T08:18:58.578Z,86.39
2018-09-19T08:19:58.607Z,86.00
2018-09-19T08:20:58.628Z,85.61
2018-09-19T08:21:58.652Z,85.03
2018-09-19T08:22:58.676Z,84.36
2018-09-19T08:23:58.708Z,84.36
2018-09-19T08:24:58.724Z,84.27
2018-09-19T08:25:58.749Z,84.75
2018-09-19T08:26:58.770Z,84.31
2018-09-19T08:27:58.797Z,83.25
2018-09-19T08:28:58.821Z,83.83
2018-09-19T08:29:58.847Z,83.34
2018-09-19T08:30:58.868Z,83.05
2018-09-19T08:31:58.896Z,83.05
2018-09-19T08:32:58.917Z,82.86
2018-09-19T08:33:58.940Z,82.09
2018-09-19T08:34:58.970Z,81.99
2018-09-19T08:35:58.990Z,81.84
2018-09-19T08:36:59.014Z,81.93
2018-09-19T08:37:59.039Z,81.55
2018-09-19T08:38:59.063Z,80.87
2018-09-19T08:39:59.086Z,80.58
2018-09-19T08:40:59.115Z,80.58
2018-09-19T08:41:59.135Z,80.39
2018-09-19T08:42:59.159Z,79.95
2018-09-19T08:43:59.183Z,79.66
2018-09-19T08:44:59.209Z,78.50
2018-09-19T08:45:59.235Z,78.41
2018-09-19T08:46:59.259Z,78.21
2018-09-19T08:47:59.285Z,78.02
2018-09-19T08:48:59.311Z,78.11
2018-09-19T08:49:59.336Z,78.31
2018-09-19T08:50:59.357Z,77.63
2018-09-19T08:51:59.395Z,77.63
2018-09-19T08:52:59.437Z,77.44
2018-09-19T08:53:59.438Z,77.76
2018-09-19T08:54:59.532Z,77.76
2018-09-19T08:55:59.511Z,77.19
2018-09-19T08:56:59.558Z,77.38
2018-09-19T08:57:59.534Z,77.19
2018-09-19T08:58:59.557Z,76.93
2018-09-19T08:59:59.583Z,76.42
2018-09-19T09:00:59.617Z,76.61
2018-09-19T09:01:59.630Z,76.64
2018-09-19T09:02:59.656Z,76.45
2018-09-19T09:03:59.686Z,76.45
2018-09-19T09:04:59.706Z,76.45
2018-09-19T09:05:59.734Z,76.26
2018-09-19T09:06:59.755Z,76.49
2018-09-19T09:07:59.783Z,76.87
2018-09-19T09:08:59.818Z,76.29
2018-09-19T09:09:59.832Z,76.39
2018-09-19T09:10:59.859Z,76.20
2018-09-19T09:11:59.908Z,76.39
2018-09-19T09:12:59.911Z,76.10
2018-09-19T09:13:59.940Z,76.01
2018-09-19T09:14:59.962Z,76.20
2018-09-19T09:15:59.986Z,76.01
2018-09-19T09:17:00.013Z,75.56
2018-09-19T09:18:00.039Z,75.75
2018-09-19T09:19:00.065Z,75.85
2018-09-19T09:20:00.192Z,75.85
2018-09-19T09:21:00.115Z,76.14
2018-09-19T09:22:00.145Z,76.14
2018-09-19T09:23:00.171Z,76.39
2018-09-19T09:24:00.194Z,76.43
2018-09-19T09:25:00.219Z,76.72
2018-09-19T09:26:00.275Z,76.53
2018-09-19T09:27:00.370Z,75.85
2018-09-19T09:28:00.327Z,75.70
2018-09-19T09:29:00.323Z,75.79
2018-09-19T09:30:00.347Z,75.79
2018-09-19T09:31:00.379Z,75.31
2018-09-19T09:32:00.399Z,75.40
2018-09-19T09:33:00.427Z,74.92
2018-09-19T09:34:00.456Z,75.11
2018-09-19T09:35:00.476Z,75.50
2018-09-19T09:36:00.506Z,75.60
2018-09-19T09:37:00.534Z,75.50
2018-09-19T09:38:00.561Z,75.98
2018-09-19T09:39:00.585Z,75.89
2018-09-19T09:40:00.613Z,75.60
2018-09-19T09:41:00.634Z,75.50
2018-09-19T09:42:00.670Z,75.11
2018-09-19T09:43:00.685Z,74.92
2018-09-19T09:44:00.715Z,74.66
2018-09-19T09:45:00.743Z,73.99
2018-09-19T09:46:00.784Z,73.79
2018-09-19T09:47:00.792Z,73.79
2018-09-19T09:48:00.821Z,74.18
2018-09-19T09:49:00.846Z,73.11
2018-09-19T09:50:00.872Z,73.31
2018-09-19T09:51:00.900Z,72.96
2018-09-19T09:52:00.925Z,72.83
2018-09-19T09:53:01.011Z,73.41
2018-09-19T09:54:00.977Z,73.79
2018-09-19T09:55:01.048Z,73.99
2018-09-19T09:56:01.031Z,74.08
2018-09-19T09:57:01.056Z,73.79
2018-09-19T09:58:01.088Z,73.89
2018-09-19T09:59:01.111Z,73.79
2018-09-19T10:00:01.141Z,73.79
2018-09-19T10:01:01.197Z,72.96
2018-09-19T10:02:01.194Z,73.02
2018-09-19T10:03:01.216Z,73.31
2018-09-19T10:04:01.245Z,73.02
2018-09-19T10:05:01.277Z,72.83
2018-09-19T10:06:01.296Z,72.73
2018-09-19T10:07:01.325Z,71.99
2018-09-19T10:08:01.350Z,71.99
2018-09-19T10:09:01.378Z,71.70
2018-09-19T10:10:01.410Z,71.99
2018-09-19T10:11:01.429Z,71.99
2018-09-19T10:12:01.459Z,70.92
2018-09-19T10:13:01.493Z,70.47
2018-09-19T10:14:01.510Z,69.89
2018-09-19T10:15:01.536Z,69.70
2018-09-19T10:16:01.581Z,69.70
2018-09-19T10:17:01.594Z,69.70
2018-09-19T10:18:01.620Z,69.54
2018-09-19T10:19:01.646Z,69.34
2018-09-19T10:20:01.719Z,68.47
2018-09-19T10:21:01.698Z,68.47
2018-09-19T10:22:01.815Z,68.28
2018-09-19T10:23:01.753Z,68.37
2018-09-19T10:24:01.788Z,68.57
2018-09-19T10:25:01.807Z,67.99
2018-09-19T10:26:01.832Z,68.28
2018-09-19T10:27:01.858Z,68.44
2018-09-19T10:28:01.888Z,68.54
2018-09-19T10:29:01.915Z,68.54
2018-09-19T10:30:01.942Z,68.44
2018-09-19T10:31:01.966Z,68.54
2018-09-19T10:32:02.070Z,68.28
2018-09-19T10:33:02.072Z,67.99
2018-09-19T10:34:02.051Z,67.79
2018-09-19T10:35:02.427Z,67.69
2018-09-19T10:36:02.105Z,67.99
2018-09-19T10:37:02.233Z,67.89
2018-09-19T10:38:02.411Z,66.72
2018-09-19T10:39:02.185Z,66.44
2018-09-19T10:40:02.216Z,66.37
2018-09-19T10:41:02.392Z,66.56
2018-09-19T10:42:02.270Z,66.34
2018-09-19T10:43:02.293Z,66.47
2018-09-19T10:44:02.384Z,65.98
2018-09-19T10:45:02.350Z,65.59
2018-09-19T10:46:02.375Z,65.30
2018-09-19T10:47:02.404Z,65.01
2018-09-19T10:48:02.432Z,65.30
2018-09-19T10:49:02.456Z,65.11
2018-09-19T10:50:02.484Z,65.01
2018-09-19T10:51:02.514Z,65.59
2018-09-19T10:52:02.542Z,66.14
2018-09-19T10:53:02.567Z,66.34
2018-09-19T10:54:02.593Z,66.24
2018-09-19T10:55:02.619Z,67.02
2018-09-19T10:56:02.648Z,67.95
2018-09-19T10:57:02.711Z,67.95
2018-09-19T10:58:02.707Z,67.89
2018-09-19T10:59:02.731Z,67.89
2018-09-19T11:00:02.757Z,67.69
2018-09-19T11:01:02.786Z,67.79
2018-09-19T11:02:02.815Z,67.31
2018-09-19T11:03:02.841Z,66.53
2018-09-19T11:04:02.869Z,66.47
2018-09-19T11:05:02.897Z,66.37
2018-09-19T11:06:02.924Z,66.53
2018-09-19T11:07:02.950Z,66.34
2018-09-19T11:08:02.975Z,66.05
2018-09-19T11:09:03.002Z,66.34
2018-09-19T11:10:03.030Z,66.17
2018-09-19T11:11:03.058Z,66.27
2018-09-19T11:12:03.084Z,65.69
2018-09-19T11:13:03.116Z,65.69
2018-09-19T11:14:03.138Z,65.50
2018-09-19T11:15:03.168Z,65.59
2018-09-19T11:16:03.193Z,65.40
2018-09-19T11:17:03.276Z,65.69
2018-09-19T11:18:03.250Z,65.14
2018-09-19T11:19:03.277Z,64.56
2018-09-19T11:20:03.305Z,64.95
2018-09-19T11:21:03.330Z,64.95
2018-09-19T11:22:03.358Z,65.01
2018-09-19T11:23:03.387Z,65.20
2018-09-19T11:24:03.415Z,64.62
2018-09-19T11:25:03.440Z,65.11
2018-09-19T11:26:03.467Z,64.92
2018-09-19T11:27:03.499Z,65.69
2018-09-19T11:28:03.524Z,65.59
2018-09-19T11:29:03.553Z,65.20
2018-09-19T11:30:03.583Z,64.46
2018-09-19T11:31:03.606Z,64.85
2018-09-19T11:32:03.640Z,64.92
2018-09-19T11:33:03.662Z,65.24
2018-09-19T11:34:03.688Z,64.65
2018-09-19T11:35:03.716Z,64.56
2018-09-19T11:36:03.744Z,64.17
2018-09-19T11:37:03.772Z,64.46
2018-09-19T11:38:03.799Z,64.65
2018-09-19T11:39:03.833Z,64.88
2018-09-19T11:40:03.855Z,64.56
2018-09-19T11:41:03.884Z,64.40
2018-09-19T11:42:03.909Z,63.78
2018-09-19T11:43:03.940Z,63.91
2018-09-19T11:44:04.015Z,63.81
2018-09-19T11:45:03.995Z,63.32
2018-09-19T11:46:04.023Z,63.29
2018-09-19T11:47:04.048Z,63.68
2018-09-19T11:48:04.079Z,63.59
2018-09-19T11:49:04.109Z,63.78
2018-09-19T11:50:04.135Z,64.56
2018-09-19T11:51:04.161Z,64.56
2018-09-19T11:52:04.190Z,63.78
2018-09-19T11:53:04.218Z,63.71
2018-09-19T11:54:04.244Z,63.52
2018-09-19T11:55:04.271Z,63.62
2018-09-19T11:56:04.302Z,63.42
2018-09-19T11:57:04.329Z,62.94
2018-09-19T11:58:04.382Z,63.91
2018-09-19T11:59:04.385Z,63.42
2018-09-19T12:00:04.413Z,62.94
2018-09-19T12:01:04.441Z,63.71
2018-09-19T12:02:04.504Z,63.52
2018-09-19T12:03:04.897Z,62.74
2018-09-19T12:04:04.529Z,62.68
2018-09-19T12:05:04.550Z,61.80
2018-09-19T12:06:04.578Z,62.45
2018-09-19T12:07:04.630Z,62.45
2018-09-19T12:08:04.634Z,62.65
2018-09-19T12:09:04.661Z,63.23
2018-09-19T12:10:04.692Z,63.39
2018-09-19T12:11:04.718Z,63.49
2018-09-19T12:12:04.749Z,63.62
2018-09-19T12:13:04.773Z,63.04
2018-09-19T12:14:04.954Z,62.94
2018-09-19T12:15:04.830Z,63.32
2018-09-19T12:16:04.860Z,63.52
2018-09-19T12:17:04.885Z,63.68
2018-09-19T12:18:04.915Z,63.59
2018-09-19T12:19:04.942Z,63.78
2018-09-19T12:20:04.970Z,63.68
2018-09-19T12:21:04.998Z,64.56
2018-09-19T12:22:05.025Z,64.92
2018-09-19T12:23:05.054Z,65.11
2018-09-19T12:24:05.084Z,65.59
2018-09-19T12:25:05.108Z,65.50
2018-09-19T12:26:05.134Z,65.50
2018-09-19T12:27:05.164Z,65.79
2018-09-19T12:28:05.188Z,66.47
2018-09-19T12:29:05.219Z,66.37
2018-09-19T12:30:05.247Z,66.08
2018-09-19T12:31:05.523Z,65.69
2018-09-19T12:32:05.300Z,65.72
2018-09-19T12:33:05.326Z,65.24
2018-09-19T12:34:05.354Z,65.05
2018-09-19T12:35:05.381Z,64.85
2018-09-19T12:36:05.412Z,64.56
2018-09-19T12:37:05.440Z,64.30
2018-09-19T12:38:05.465Z,63.81
2018-09-19T12:39:05.491Z,63.52
2018-09-19T12:40:05.519Z,63.32
2018-09-19T12:41:05.551Z,63.91
2018-09-19T12:42:05.576Z,63.81
2018-09-19T12:43:05.603Z,63.62
2018-09-19T12:44:05.631Z,63.81
2018-09-19T12:45:05.659Z,63.32
2018-09-19T12:46:05.685Z,63.81
2018-09-19T12:47:05.715Z,63.36
2018-09-19T12:48:05.743Z,63.71
2018-09-19T12:49:05.824Z,63.62
2018-09-19T12:50:05.799Z,64.59
2018-09-19T12:51:05.825Z,64.49
2018-09-19T12:52:05.883Z,65.08
2018-09-19T12:53:05.882Z,65.24
2018-09-19T12:54:05.916Z,65.17